sensor_id;sensor_type;location;lat;lon;timestamp;P1;durP1;ratioP1;P2;durP2;ratioP2
19867;SDS011;10096;51.112;6.776;2023-01-30T00:01:12;24.83;;;16.10;;
19867;SDS011;10096;51.112;6.776;2023-01-30T00:03:42;25.73;;;17.47;;
19867;SDS011;10096;51.112;6.776;2023-01-30T00:06:09;25.33;;;16.27;;
19867;SDS011;10096;51.112;6.776;2023-01-30T00:08:37;23.67;;;15.73;;
19867;SDS011;10096;51.112;6.776;2023-01-30T00:11:04;22.00;;;14.90;;
19867;SDS011;10096;51.112;6.776;2023-01-30T00:13:32;22.33;;;16.57;;
19867;SDS011;10096;51.112;6.776;2023-01-30T00:15:59;24.10;;;16.10;;
19867;SDS011;10096;51.112;6.776;2023-01-30T00:18:26;23.03;;;15.80;;
19867;SDS011;10096;51.112;6.776;2023-01-30T00:20:58;21.57;;;15.27;;
19867;SDS011;10096;51.112;6.776;2023-01-30T00:23:27;26.30;;;16.83;;
19867;SDS011;10096;51.112;6.776;2023-01-30T00:25:54;23.50;;;16.27;;
19867;SDS011;10096;51.112;6.776;2023-01-30T00:28:21;24.40;;;16.37;;
19867;SDS011;10096;51.112;6.776;2023-01-30T00:30:49;25.80;;;15.93;;
19867;SDS011;10096;51.112;6.776;2023-01-30T00:33:17;24.03;;;16.00;;
19867;SDS011;10096;51.112;6.776;2023-01-30T00:35:44;25.20;;;16.43;;
19867;SDS011;10096;51.112;6.776;2023-01-30T00:38:13;22.77;;;16.33;;
19867;SDS011;10096;51.112;6.776;2023-01-30T00:40:42;25.53;;;17.57;;
19867;SDS011;10096;51.112;6.776;2023-01-30T00:43:09;28.53;;;17.33;;
19867;SDS011;10096;51.112;6.776;2023-01-30T00:45:55;23.90;;;16.27;;
19867;SDS011;10096;51.112;6.776;2023-01-30T00:48:41;23.07;;;15.87;;
19867;SDS011;10096;51.112;6.776;2023-01-30T00:51:08;22.97;;;16.13;;
19867;SDS011;10096;51.112;6.776;2023-01-30T00:53:36;23.00;;;16.20;;
19867;SDS011;10096;51.112;6.776;2023-01-30T00:56:03;25.13;;;17.90;;
19867;SDS011;10096;51.112;6.776;2023-01-30T00:58:31;23.90;;;16.43;;
19867;SDS011;10096;51.112;6.776;2023-01-30T01:00:58;24.93;;;17.33;;
19867;SDS011;10096;51.112;6.776;2023-01-30T01:03:25;24.77;;;17.37;;
19867;SDS011;10096;51.112;6.776;2023-01-30T01:05:51;25.27;;;15.83;;
19867;SDS011;10096;51.112;6.776;2023-01-30T01:08:18;23.73;;;16.13;;
19867;SDS011;10096;51.112;6.776;2023-01-30T01:10:48;23.90;;;16.13;;
19867;SDS011;10096;51.112;6.776;2023-01-30T01:13:14;25.80;;;17.07;;
19867;SDS011;10096;51.112;6.776;2023-01-30T01:15:41;25.53;;;17.63;;
19867;SDS011;10096;51.112;6.776;2023-01-30T01:18:08;23.53;;;16.03;;
19867;SDS011;10096;51.112;6.776;2023-01-30T01:20:35;25.20;;;16.93;;
19867;SDS011;10096;51.112;6.776;2023-01-30T01:23:02;22.93;;;15.40;;
19867;SDS011;10096;51.112;6.776;2023-01-30T01:25:29;24.83;;;17.03;;
19867;SDS011;10096;51.112;6.776;2023-01-30T01:27:57;24.57;;;16.00;;
19867;SDS011;10096;51.112;6.776;2023-01-30T01:30:24;21.70;;;14.93;;
19867;SDS011;10096;51.112;6.776;2023-01-30T01:32:51;28.43;;;17.40;;
19867;SDS011;10096;51.112;6.776;2023-01-30T01:35:17;25.00;;;15.83;;
19867;SDS011;10096;51.112;6.776;2023-01-30T01:37:44;23.13;;;15.13;;
19867;SDS011;10096;51.112;6.776;2023-01-30T01:40:14;24.20;;;17.10;;
19867;SDS011;10096;51.112;6.776;2023-01-30T01:43:02;23.87;;;16.33;;
19867;SDS011;10096;51.112;6.776;2023-01-30T01:45:39;23.83;;;16.37;;
19867;SDS011;10096;51.112;6.776;2023-01-30T01:48:08;24.00;;;15.77;;
19867;SDS011;10096;51.112;6.776;2023-01-30T01:50:41;22.60;;;15.80;;
19867;SDS011;10096;51.112;6.776;2023-01-30T01:53:12;21.57;;;15.80;;
19867;SDS011;10096;51.112;6.776;2023-01-30T01:55:42;23.60;;;15.67;;
19867;SDS011;10096;51.112;6.776;2023-01-30T01:58:13;22.20;;;15.87;;
19867;SDS011;10096;51.112;6.776;2023-01-30T02:00:43;24.53;;;16.60;;
19867;SDS011;10096;51.112;6.776;2023-01-30T02:03:11;21.87;;;15.60;;
19867;SDS011;10096;51.112;6.776;2023-01-30T02:05:42;22.07;;;15.93;;
19867;SDS011;10096;51.112;6.776;2023-01-30T02:08:12;23.47;;;15.73;;
19867;SDS011;10096;51.112;6.776;2023-01-30T02:10:47;21.63;;;14.73;;
19867;SDS011;10096;51.112;6.776;2023-01-30T02:13:19;19.93;;;14.53;;
19867;SDS011;10096;51.112;6.776;2023-01-30T02:15:47;19.97;;;14.83;;
19867;SDS011;10096;51.112;6.776;2023-01-30T02:18:14;23.17;;;14.70;;
19867;SDS011;10096;51.112;6.776;2023-01-30T02:20:49;23.37;;;14.80;;
19867;SDS011;10096;51.112;6.776;2023-01-30T02:23:51;26.13;;;16.87;;
19867;SDS011;10096;51.112;6.776;2023-01-30T02:26:47;20.87;;;15.43;;
19867;SDS011;10096;51.112;6.776;2023-01-30T02:29:38;21.73;;;16.23;;
19867;SDS011;10096;51.112;6.776;2023-01-30T02:32:24;21.83;;;15.17;;
19867;SDS011;10096;51.112;6.776;2023-01-30T02:35:02;23.63;;;15.77;;
19867;SDS011;10096;51.112;6.776;2023-01-30T02:37:43;22.60;;;15.90;;
19867;SDS011;10096;51.112;6.776;2023-01-30T02:40:18;26.43;;;16.07;;
19867;SDS011;10096;51.112;6.776;2023-01-30T02:43:05;22.17;;;15.50;;
19867;SDS011;10096;51.112;6.776;2023-01-30T02:45:41;22.43;;;14.87;;
19867;SDS011;10096;51.112;6.776;2023-01-30T02:48:15;21.67;;;15.53;;
19867;SDS011;10096;51.112;6.776;2023-01-30T02:50:48;21.13;;;15.67;;
19867;SDS011;10096;51.112;6.776;2023-01-30T02:53:19;20.53;;;15.67;;
19867;SDS011;10096;51.112;6.776;2023-01-30T02:55:46;22.00;;;15.03;;
19867;SDS011;10096;51.112;6.776;2023-01-30T02:58:13;21.00;;;15.07;;
19867;SDS011;10096;51.112;6.776;2023-01-30T03:00:55;20.53;;;14.27;;
19867;SDS011;10096;51.112;6.776;2023-01-30T03:03:59;25.20;;;14.53;;
19867;SDS011;10096;51.112;6.776;2023-01-30T03:06:43;22.07;;;16.00;;
19867;SDS011;10096;51.112;6.776;2023-01-30T03:09:24;23.77;;;15.27;;
19867;SDS011;10096;51.112;6.776;2023-01-30T03:12:02;23.40;;;15.70;;
19867;SDS011;10096;51.112;6.776;2023-01-30T03:14:36;18.87;;;14.27;;
19867;SDS011;10096;51.112;6.776;2023-01-30T03:17:08;21.57;;;14.57;;
19867;SDS011;10096;51.112;6.776;2023-01-30T03:19:40;21.20;;;15.13;;
19867;SDS011;10096;51.112;6.776;2023-01-30T03:22:08;20.47;;;14.80;;
19867;SDS011;10096;51.112;6.776;2023-01-30T03:24:35;23.27;;;14.03;;
19867;SDS011;10096;51.112;6.776;2023-01-30T03:27:03;21.57;;;14.93;;
19867;SDS011;10096;51.112;6.776;2023-01-30T03:29:33;21.23;;;15.13;;
19867;SDS011;10096;51.112;6.776;2023-01-30T03:32:00;21.03;;;14.57;;
19867;SDS011;10096;51.112;6.776;2023-01-30T03:34:27;20.43;;;14.80;;
19867;SDS011;10096;51.112;6.776;2023-01-30T03:36:55;20.13;;;14.27;;
19867;SDS011;10096;51.112;6.776;2023-01-30T03:39:23;19.80;;;14.80;;
19867;SDS011;10096;51.112;6.776;2023-01-30T03:41:50;19.80;;;14.87;;
19867;SDS011;10096;51.112;6.776;2023-01-30T03:44:18;22.03;;;15.50;;
19867;SDS011;10096;51.112;6.776;2023-01-30T03:46:45;20.77;;;15.60;;
19867;SDS011;10096;51.112;6.776;2023-01-30T03:49:12;22.47;;;15.10;;
19867;SDS011;10096;51.112;6.776;2023-01-30T03:51:39;18.77;;;13.60;;
19867;SDS011;10096;51.112;6.776;2023-01-30T03:54:08;21.63;;;15.90;;
19867;SDS011;10096;51.112;6.776;2023-01-30T03:56:35;20.97;;;15.97;;
19867;SDS011;10096;51.112;6.776;2023-01-30T03:59:02;22.23;;;15.70;;
19867;SDS011;10096;51.112;6.776;2023-01-30T04:01:29;22.43;;;15.37;;
19867;SDS011;10096;51.112;6.776;2023-01-30T04:03:56;20.70;;;14.57;;
19867;SDS011;10096;51.112;6.776;2023-01-30T04:06:22;21.77;;;14.93;;
19867;SDS011;10096;51.112;6.776;2023-01-30T04:08:51;21.70;;;15.27;;
19867;SDS011;10096;51.112;6.776;2023-01-30T04:11:19;23.73;;;16.17;;
19867;SDS011;10096;51.112;6.776;2023-01-30T04:13:48;21.07;;;14.67;;
19867;SDS011;10096;51.112;6.776;2023-01-30T04:16:16;23.53;;;16.00;;
19867;SDS011;10096;51.112;6.776;2023-01-30T04:18:44;22.17;;;15.93;;
19867;SDS011;10096;51.112;6.776;2023-01-30T04:21:11;22.43;;;15.80;;
19867;SDS011;10096;51.112;6.776;2023-01-30T04:23:39;24.17;;;15.40;;
19867;SDS011;10096;51.112;6.776;2023-01-30T04:26:06;21.07;;;16.30;;
19867;SDS011;10096;51.112;6.776;2023-01-30T04:28:36;21.77;;;15.20;;
19867;SDS011;10096;51.112;6.776;2023-01-30T04:31:03;23.27;;;17.20;;
19867;SDS011;10096;51.112;6.776;2023-01-30T04:33:31;20.83;;;16.20;;
19867;SDS011;10096;51.112;6.776;2023-01-30T04:35:59;20.37;;;15.77;;
19867;SDS011;10096;51.112;6.776;2023-01-30T04:38:28;23.57;;;15.90;;
19867;SDS011;10096;51.112;6.776;2023-01-30T04:40:56;25.10;;;16.93;;
19867;SDS011;10096;51.112;6.776;2023-01-30T04:43:24;23.43;;;15.67;;
19867;SDS011;10096;51.112;6.776;2023-01-30T04:45:53;21.90;;;16.30;;
19867;SDS011;10096;51.112;6.776;2023-01-30T04:48:21;24.27;;;16.30;;
19867;SDS011;10096;51.112;6.776;2023-01-30T04:50:51;23.30;;;16.17;;
19867;SDS011;10096;51.112;6.776;2023-01-30T04:53:19;23.40;;;15.30;;
19867;SDS011;10096;51.112;6.776;2023-01-30T04:55:47;19.67;;;15.20;;
19867;SDS011;10096;51.112;6.776;2023-01-30T04:58:14;22.27;;;15.83;;
19867;SDS011;10096;51.112;6.776;2023-01-30T05:00:42;25.37;;;17.10;;
19867;SDS011;10096;51.112;6.776;2023-01-30T05:03:10;23.00;;;16.43;;
19867;SDS011;10096;51.112;6.776;2023-01-30T05:05:37;22.47;;;16.07;;
19867;SDS011;10096;51.112;6.776;2023-01-30T05:08:04;23.83;;;15.07;;
19867;SDS011;10096;51.112;6.776;2023-01-30T05:10:31;24.93;;;16.17;;
19867;SDS011;10096;51.112;6.776;2023-01-30T05:13:00;21.03;;;15.03;;
19867;SDS011;10096;51.112;6.776;2023-01-30T05:15:27;20.10;;;14.87;;
19867;SDS011;10096;51.112;6.776;2023-01-30T05:17:54;22.07;;;15.03;;
19867;SDS011;10096;51.112;6.776;2023-01-30T05:20:23;20.97;;;14.97;;
19867;SDS011;10096;51.112;6.776;2023-01-30T05:22:50;24.53;;;15.07;;
19867;SDS011;10096;51.112;6.776;2023-01-30T05:25:17;19.77;;;14.70;;
19867;SDS011;10096;51.112;6.776;2023-01-30T05:27:44;18.83;;;14.37;;
19867;SDS011;10096;51.112;6.776;2023-01-30T05:30:11;21.57;;;14.37;;
19867;SDS011;10096;51.112;6.776;2023-01-30T05:32:38;17.17;;;13.50;;
19867;SDS011;10096;51.112;6.776;2023-01-30T05:35:06;21.70;;;14.13;;
19867;SDS011;10096;51.112;6.776;2023-01-30T05:37:34;19.23;;;13.90;;
19867;SDS011;10096;51.112;6.776;2023-01-30T05:40:02;17.90;;;13.20;;
19867;SDS011;10096;51.112;6.776;2023-01-30T05:42:30;19.43;;;13.77;;
19867;SDS011;10096;51.112;6.776;2023-01-30T05:44:57;16.43;;;11.97;;
19867;SDS011;10096;51.112;6.776;2023-01-30T05:47:23;17.67;;;12.90;;
19867;SDS011;10096;51.112;6.776;2023-01-30T05:49:51;16.87;;;12.27;;
19867;SDS011;10096;51.112;6.776;2023-01-30T05:52:18;14.80;;;11.97;;
19867;SDS011;10096;51.112;6.776;2023-01-30T05:54:46;16.47;;;11.93;;
19867;SDS011;10096;51.112;6.776;2023-01-30T05:57:13;17.57;;;12.93;;
19867;SDS011;10096;51.112;6.776;2023-01-30T05:59:40;13.50;;;11.57;;
19867;SDS011;10096;51.112;6.776;2023-01-30T06:02:07;14.73;;;11.30;;
19867;SDS011;10096;51.112;6.776;2023-01-30T06:04:34;13.67;;;10.97;;
19867;SDS011;10096;51.112;6.776;2023-01-30T06:07:01;15.03;;;11.97;;
19867;SDS011;10096;51.112;6.776;2023-01-30T06:09:28;14.20;;;11.10;;
19867;SDS011;10096;51.112;6.776;2023-01-30T06:11:56;16.43;;;11.23;;
19867;SDS011;10096;51.112;6.776;2023-01-30T06:14:23;14.67;;;11.70;;
19867;SDS011;10096;51.112;6.776;2023-01-30T06:16:50;15.13;;;11.30;;
19867;SDS011;10096;51.112;6.776;2023-01-30T06:19:17;15.60;;;11.90;;
19867;SDS011;10096;51.112;6.776;2023-01-30T06:21:44;15.23;;;11.80;;
19867;SDS011;10096;51.112;6.776;2023-01-30T06:24:11;15.70;;;12.33;;
19867;SDS011;10096;51.112;6.776;2023-01-30T06:26:38;13.20;;;11.43;;
19867;SDS011;10096;51.112;6.776;2023-01-30T06:29:06;14.80;;;11.27;;
19867;SDS011;10096;51.112;6.776;2023-01-30T06:31:33;17.27;;;12.80;;
19867;SDS011;10096;51.112;6.776;2023-01-30T06:34:00;14.93;;;11.97;;
19867;SDS011;10096;51.112;6.776;2023-01-30T06:36:27;16.10;;;10.83;;
19867;SDS011;10096;51.112;6.776;2023-01-30T06:38:54;16.10;;;11.63;;
19867;SDS011;10096;51.112;6.776;2023-01-30T06:41:21;16.33;;;12.07;;
19867;SDS011;10096;51.112;6.776;2023-01-30T06:43:48;16.90;;;11.83;;
19867;SDS011;10096;51.112;6.776;2023-01-30T06:46:17;13.47;;;11.90;;
19867;SDS011;10096;51.112;6.776;2023-01-30T06:48:44;14.90;;;12.13;;
19867;SDS011;10096;51.112;6.776;2023-01-30T06:51:11;15.47;;;12.90;;
19867;SDS011;10096;51.112;6.776;2023-01-30T06:53:38;15.60;;;11.63;;
19867;SDS011;10096;51.112;6.776;2023-01-30T06:56:05;18.67;;;14.33;;
19867;SDS011;10096;51.112;6.776;2023-01-30T06:58:32;17.17;;;13.60;;
19867;SDS011;10096;51.112;6.776;2023-01-30T07:00:59;18.70;;;15.73;;
19867;SDS011;10096;51.112;6.776;2023-01-30T07:03:28;14.50;;;12.77;;
19867;SDS011;10096;51.112;6.776;2023-01-30T07:05:55;16.17;;;12.93;;
19867;SDS011;10096;51.112;6.776;2023-01-30T07:08:22;20.10;;;14.83;;
19867;SDS011;10096;51.112;6.776;2023-01-30T07:10:49;15.20;;;11.80;;
19867;SDS011;10096;51.112;6.776;2023-01-30T07:13:16;15.70;;;12.00;;
19867;SDS011;10096;51.112;6.776;2023-01-30T07:15:43;15.07;;;12.77;;
19867;SDS011;10096;51.112;6.776;2023-01-30T07:18:10;14.67;;;12.50;;
19867;SDS011;10096;51.112;6.776;2023-01-30T07:20:39;16.07;;;12.23;;
19867;SDS011;10096;51.112;6.776;2023-01-30T07:23:07;14.97;;;11.73;;
19867;SDS011;10096;51.112;6.776;2023-01-30T07:25:34;17.37;;;12.80;;
19867;SDS011;10096;51.112;6.776;2023-01-30T07:28:01;13.00;;;11.00;;
19867;SDS011;10096;51.112;6.776;2023-01-30T07:30:29;14.07;;;11.43;;
19867;SDS011;10096;51.112;6.776;2023-01-30T07:32:58;13.23;;;11.83;;
19867;SDS011;10096;51.112;6.776;2023-01-30T07:35:25;14.27;;;11.73;;
19867;SDS011;10096;51.112;6.776;2023-01-30T07:38:09;14.00;;;11.70;;
19867;SDS011;10096;51.112;6.776;2023-01-30T07:40:35;13.80;;;11.87;;
19867;SDS011;10096;51.112;6.776;2023-01-30T07:43:03;14.10;;;12.37;;
19867;SDS011;10096;51.112;6.776;2023-01-30T07:45:34;14.17;;;12.03;;
19867;SDS011;10096;51.112;6.776;2023-01-30T07:48:03;15.97;;;12.70;;
19867;SDS011;10096;51.112;6.776;2023-01-30T07:50:30;14.63;;;12.63;;
19867;SDS011;10096;51.112;6.776;2023-01-30T07:52:57;15.90;;;12.33;;
19867;SDS011;10096;51.112;6.776;2023-01-30T07:55:26;16.93;;;12.70;;
19867;SDS011;10096;51.112;6.776;2023-01-30T07:57:54;15.43;;;12.97;;
19867;SDS011;10096;51.112;6.776;2023-01-30T08:00:21;16.83;;;12.63;;
19867;SDS011;10096;51.112;6.776;2023-01-30T08:02:50;16.57;;;12.90;;
19867;SDS011;10096;51.112;6.776;2023-01-30T08:05:17;15.93;;;13.17;;
19867;SDS011;10096;51.112;6.776;2023-01-30T08:07:44;17.03;;;14.07;;
19867;SDS011;10096;51.112;6.776;2023-01-30T08:10:12;14.93;;;13.43;;
19867;SDS011;10096;51.112;6.776;2023-01-30T08:12:43;17.87;;;13.70;;
19867;SDS011;10096;51.112;6.776;2023-01-30T08:15:12;19.73;;;14.30;;
19867;SDS011;10096;51.112;6.776;2023-01-30T08:17:39;17.17;;;13.63;;
19867;SDS011;10096;51.112;6.776;2023-01-30T08:20:06;20.37;;;14.07;;
19867;SDS011;10096;51.112;6.776;2023-01-30T08:22:34;19.23;;;13.50;;
19867;SDS011;10096;51.112;6.776;2023-01-30T08:25:01;16.00;;;13.10;;
19867;SDS011;10096;51.112;6.776;2023-01-30T08:27:29;19.23;;;13.30;;
19867;SDS011;10096;51.112;6.776;2023-01-30T08:29:57;16.53;;;12.77;;
19867;SDS011;10096;51.112;6.776;2023-01-30T08:32:24;15.43;;;12.20;;
19867;SDS011;10096;51.112;6.776;2023-01-30T08:34:51;16.43;;;12.23;;
19867;SDS011;10096;51.112;6.776;2023-01-30T08:37:18;17.37;;;12.60;;
19867;SDS011;10096;51.112;6.776;2023-01-30T08:39:45;17.17;;;12.57;;
19867;SDS011;10096;51.112;6.776;2023-01-30T08:42:12;17.80;;;12.67;;
19867;SDS011;10096;51.112;6.776;2023-01-30T08:44:38;13.77;;;11.80;;
19867;SDS011;10096;51.112;6.776;2023-01-30T08:47:07;19.87;;;13.40;;
19867;SDS011;10096;51.112;6.776;2023-01-30T08:49:34;20.13;;;12.20;;
19867;SDS011;10096;51.112;6.776;2023-01-30T08:52:01;19.27;;;11.90;;
19867;SDS011;10096;51.112;6.776;2023-01-30T08:54:28;19.70;;;12.00;;
19867;SDS011;10096;51.112;6.776;2023-01-30T08:56:55;15.37;;;11.70;;
19867;SDS011;10096;51.112;6.776;2023-01-30T08:59:22;16.83;;;10.97;;
19867;SDS011;10096;51.112;6.776;2023-01-30T09:01:49;16.27;;;11.40;;
19867;SDS011;10096;51.112;6.776;2023-01-30T09:04:17;13.80;;;11.07;;
19867;SDS011;10096;51.112;6.776;2023-01-30T09:06:45;14.93;;;11.07;;
19867;SDS011;10096;51.112;6.776;2023-01-30T09:09:12;13.90;;;9.80;;
19867;SDS011;10096;51.112;6.776;2023-01-30T09:11:39;13.13;;;9.30;;
19867;SDS011;10096;51.112;6.776;2023-01-30T09:14:17;15.43;;;10.30;;
19867;SDS011;10096;51.112;6.776;2023-01-30T09:16:52;13.53;;;8.70;;
19867;SDS011;10096;51.112;6.776;2023-01-30T09:19:22;11.83;;;8.30;;
19867;SDS011;10096;51.112;6.776;2023-01-30T09:21:49;11.80;;;7.37;;
19867;SDS011;10096;51.112;6.776;2023-01-30T09:24:17;11.07;;;7.03;;
19867;SDS011;10096;51.112;6.776;2023-01-30T09:26:44;11.10;;;7.47;;
19867;SDS011;10096;51.112;6.776;2023-01-30T09:29:12;16.27;;;7.87;;
19867;SDS011;10096;51.112;6.776;2023-01-30T09:31:43;13.90;;;7.33;;
19867;SDS011;10096;51.112;6.776;2023-01-30T09:34:16;14.37;;;6.87;;
19867;SDS011;10096;51.112;6.776;2023-01-30T09:36:44;10.23;;;5.87;;
19867;SDS011;10096;51.112;6.776;2023-01-30T09:39:11;13.17;;;6.93;;
19867;SDS011;10096;51.112;6.776;2023-01-30T09:47:30;13.63;;;5.97;;
19867;SDS011;10096;51.112;6.776;2023-01-30T09:50:11;13.47;;;7.07;;
19867;SDS011;10096;51.112;6.776;2023-01-30T09:52:52;14.23;;;5.67;;
19867;SDS011;10096;51.112;6.776;2023-01-30T09:55:23;14.47;;;5.33;;
19867;SDS011;10096;51.112;6.776;2023-01-30T09:57:53;17.37;;;7.20;;
19867;SDS011;10096;51.112;6.776;2023-01-30T10:00:23;11.77;;;5.07;;
19867;SDS011;10096;51.112;6.776;2023-01-30T10:02:56;8.17;;;4.27;;
19867;SDS011;10096;51.112;6.776;2023-01-30T10:05:30;13.00;;;5.80;;
19867;SDS011;10096;51.112;6.776;2023-01-30T10:08:06;12.20;;;4.70;;
19867;SDS011;10096;51.112;6.776;2023-01-30T10:10:45;11.33;;;4.40;;
19867;SDS011;10096;51.112;6.776;2023-01-30T10:13:22;8.97;;;4.00;;
19867;SDS011;10096;51.112;6.776;2023-01-30T10:16:01;9.80;;;3.53;;
19867;SDS011;10096;51.112;6.776;2023-01-30T10:18:40;22.00;;;10.43;;
19867;SDS011;10096;51.112;6.776;2023-01-30T10:21:18;12.53;;;4.27;;
19867;SDS011;10096;51.112;6.776;2023-01-30T10:24:03;12.37;;;4.23;;
19867;SDS011;10096;51.112;6.776;2023-01-30T10:26:40;10.27;;;4.33;;
19867;SDS011;10096;51.112;6.776;2023-01-30T10:31:57;13.17;;;4.37;;
19867;SDS011;10096;51.112;6.776;2023-01-30T10:34:28;11.00;;;4.73;;
19867;SDS011;10096;51.112;6.776;2023-01-30T10:36:59;10.33;;;3.30;;
19867;SDS011;10096;51.112;6.776;2023-01-30T10:39:40;12.45;;;4.40;;
19867;SDS011;10096;51.112;6.776;2023-01-30T10:42:15;12.80;;;4.57;;
19867;SDS011;10096;51.112;6.776;2023-01-30T10:44:46;10.27;;;4.10;;
19867;SDS011;10096;51.112;6.776;2023-01-30T10:47:18;12.87;;;4.20;;
19867;SDS011;10096;51.112;6.776;2023-01-30T10:50:01;13.93;;;4.47;;
19867;SDS011;10096;51.112;6.776;2023-01-30T10:52:40;10.70;;;4.60;;
19867;SDS011;10096;51.112;6.776;2023-01-30T10:55:23;15.17;;;5.93;;
19867;SDS011;10096;51.112;6.776;2023-01-30T10:57:57;9.70;;;4.13;;
19867;SDS011;10096;51.112;6.776;2023-01-30T11:00:32;14.87;;;4.50;;
19867;SDS011;10096;51.112;6.776;2023-01-30T11:03:08;13.90;;;5.00;;
19867;SDS011;10096;51.112;6.776;2023-01-30T11:05:41;13.05;;;3.83;;
19867;SDS011;10096;51.112;6.776;2023-01-30T11:08:16;9.80;;;3.93;;
19867;SDS011;10096;51.112;6.776;2023-01-30T11:10:48;12.10;;;4.40;;
19867;SDS011;10096;51.112;6.776;2023-01-30T11:13:16;9.53;;;4.30;;
19867;SDS011;10096;51.112;6.776;2023-01-30T11:15:48;15.13;;;5.13;;
19867;SDS011;10096;51.112;6.776;2023-01-30T11:18:17;11.13;;;4.03;;
19867;SDS011;10096;51.112;6.776;2023-01-30T11:20:57;12.90;;;4.33;;
19867;SDS011;10096;51.112;6.776;2023-01-30T11:23:30;13.70;;;4.33;;
19867;SDS011;10096;51.112;6.776;2023-01-30T11:26:00;9.50;;;3.93;;
19867;SDS011;10096;51.112;6.776;2023-01-30T11:28:33;12.00;;;5.00;;
19867;SDS011;10096;51.112;6.776;2023-01-30T11:31:04;11.07;;;3.93;;
19867;SDS011;10096;51.112;6.776;2023-01-30T11:33:41;12.53;;;3.80;;
19867;SDS011;10096;51.112;6.776;2023-01-30T11:36:23;15.73;;;4.60;;
19867;SDS011;10096;51.112;6.776;2023-01-30T11:38:53;12.63;;;5.53;;
19867;SDS011;10096;51.112;6.776;2023-01-30T11:41:24;12.03;;;4.33;;
19867;SDS011;10096;51.112;6.776;2023-01-30T11:43:52;10.90;;;4.87;;
19867;SDS011;10096;51.112;6.776;2023-01-30T11:46:30;8.33;;;4.07;;
19867;SDS011;10096;51.112;6.776;2023-01-30T11:49:00;9.33;;;4.17;;
19867;SDS011;10096;51.112;6.776;2023-01-30T11:51:33;14.00;;;4.83;;
19867;SDS011;10096;51.112;6.776;2023-01-30T11:54:03;15.77;;;7.83;;
19867;SDS011;10096;51.112;6.776;2023-01-30T11:56:34;10.20;;;3.83;;
19867;SDS011;10096;51.112;6.776;2023-01-30T11:59:05;9.82;;;3.50;;
19867;SDS011;10096;51.112;6.776;2023-01-30T12:01:47;9.45;;;3.70;;
19867;SDS011;10096;51.112;6.776;2023-01-30T12:04:14;15.30;;;4.70;;
19867;SDS011;10096;51.112;6.776;2023-01-30T12:06:44;11.87;;;4.77;;
19867;SDS011;10096;51.112;6.776;2023-01-30T12:09:29;11.67;;;5.47;;
19867;SDS011;10096;51.112;6.776;2023-01-30T12:12:00;14.87;;;4.40;;
19867;SDS011;10096;51.112;6.776;2023-01-30T12:14:34;9.07;;;4.30;;
19867;SDS011;10096;51.112;6.776;2023-01-30T12:17:08;10.23;;;4.13;;
19867;SDS011;10096;51.112;6.776;2023-01-30T12:19:45;12.30;;;4.60;;
19867;SDS011;10096;51.112;6.776;2023-01-30T12:22:23;10.87;;;3.87;;
19867;SDS011;10096;51.112;6.776;2023-01-30T12:24:57;11.43;;;4.20;;
19867;SDS011;10096;51.112;6.776;2023-01-30T12:27:30;11.00;;;4.87;;
19867;SDS011;10096;51.112;6.776;2023-01-30T12:30:17;8.33;;;3.53;;
19867;SDS011;10096;51.112;6.776;2023-01-30T12:32:55;12.37;;;5.13;;
19867;SDS011;10096;51.112;6.776;2023-01-30T12:35:27;10.87;;;3.80;;
19867;SDS011;10096;51.112;6.776;2023-01-30T12:38:10;6.70;;;3.70;;
19867;SDS011;10096;51.112;6.776;2023-01-30T12:40:48;10.03;;;5.00;;
19867;SDS011;10096;51.112;6.776;2023-01-30T12:43:25;9.67;;;3.53;;
19867;SDS011;10096;51.112;6.776;2023-01-30T12:49:29;8.70;;;4.10;;
19867;SDS011;10096;51.112;6.776;2023-01-30T12:52:08;11.30;;;4.33;;
19867;SDS011;10096;51.112;6.776;2023-01-30T12:54:53;13.80;;;3.70;;
19867;SDS011;10096;51.112;6.776;2023-01-30T12:57:26;11.80;;;3.97;;
19867;SDS011;10096;51.112;6.776;2023-01-30T13:00:03;8.97;;;3.50;;
19867;SDS011;10096;51.112;6.776;2023-01-30T13:02:48;10.90;;;4.28;;
19867;SDS011;10096;51.112;6.776;2023-01-30T13:05:28;10.77;;;3.67;;
19867;SDS011;10096;51.112;6.776;2023-01-30T13:08:10;7.95;;;2.95;;
19867;SDS011;10096;51.112;6.776;2023-01-30T13:10:50;12.67;;;4.20;;
19867;SDS011;10096;51.112;6.776;2023-01-30T13:13:28;10.23;;;3.83;;
19867;SDS011;10096;51.112;6.776;2023-01-30T13:16:03;12.20;;;4.63;;
19867;SDS011;10096;51.112;6.776;2023-01-30T13:18:38;15.43;;;5.63;;
19867;SDS011;10096;51.112;6.776;2023-01-30T13:21:12;12.37;;;4.43;;
19867;SDS011;10096;51.112;6.776;2023-01-30T13:23:46;11.57;;;4.23;;
19867;SDS011;10096;51.112;6.776;2023-01-30T13:26:21;11.40;;;5.60;;
19867;SDS011;10096;51.112;6.776;2023-01-30T13:28:54;11.70;;;4.43;;
19867;SDS011;10096;51.112;6.776;2023-01-30T13:31:25;11.27;;;4.17;;
19867;SDS011;10096;51.112;6.776;2023-01-30T13:34:00;19.90;;;5.20;;
19867;SDS011;10096;51.112;6.776;2023-01-30T13:36:32;10.02;;;3.72;;
19867;SDS011;10096;51.112;6.776;2023-01-30T13:39:08;15.70;;;5.82;;
19867;SDS011;10096;51.112;6.776;2023-01-30T13:41:40;11.45;;;4.75;;
19867;SDS011;10096;51.112;6.776;2023-01-30T13:44:14;12.23;;;4.47;;
19867;SDS011;10096;51.112;6.776;2023-01-30T13:46:47;10.57;;;5.07;;
19867;SDS011;10096;51.112;6.776;2023-01-30T13:49:17;12.70;;;4.90;;
19867;SDS011;10096;51.112;6.776;2023-01-30T13:51:49;9.90;;;4.37;;
19867;SDS011;10096;51.112;6.776;2023-01-30T13:54:24;13.73;;;4.87;;
19867;SDS011;10096;51.112;6.776;2023-01-30T13:57:14;16.03;;;7.13;;
19867;SDS011;10096;51.112;6.776;2023-01-30T13:59:53;11.50;;;4.63;;
19867;SDS011;10096;51.112;6.776;2023-01-30T14:03:14;10.10;;;3.80;;
19867;SDS011;10096;51.112;6.776;2023-01-30T14:06:03;13.07;;;4.83;;
19867;SDS011;10096;51.112;6.776;2023-01-30T14:08:38;8.07;;;3.63;;
19867;SDS011;10096;51.112;6.776;2023-01-30T14:11:24;18.27;;;7.43;;
19867;SDS011;10096;51.112;6.776;2023-01-30T14:13:55;13.13;;;4.87;;
19867;SDS011;10096;51.112;6.776;2023-01-30T14:16:38;13.40;;;4.50;;
19867;SDS011;10096;51.112;6.776;2023-01-30T14:22:25;9.93;;;3.53;;
19867;SDS011;10096;51.112;6.776;2023-01-30T14:34:37;20.27;;;8.53;;
19867;SDS011;10096;51.112;6.776;2023-01-30T14:39:56;17.73;;;5.77;;
19867;SDS011;10096;51.112;6.776;2023-01-30T14:42:24;28.80;;;14.13;;
19867;SDS011;10096;51.112;6.776;2023-01-30T14:44:57;11.07;;;3.80;;
19867;SDS011;10096;51.112;6.776;2023-01-30T14:47:27;12.43;;;4.23;;
19867;SDS011;10096;51.112;6.776;2023-01-30T14:49:57;9.40;;;3.90;;
19867;SDS011;10096;51.112;6.776;2023-01-30T14:55:17;16.40;;;4.80;;
19867;SDS011;10096;51.112;6.776;2023-01-30T14:57:52;12.47;;;3.93;;
19867;SDS011;10096;51.112;6.776;2023-01-30T15:00:25;13.70;;;3.67;;
19867;SDS011;10096;51.112;6.776;2023-01-30T15:02:57;9.57;;;4.00;;
19867;SDS011;10096;51.112;6.776;2023-01-30T15:05:30;13.93;;;4.80;;
19867;SDS011;10096;51.112;6.776;2023-01-30T15:08:05;15.40;;;5.87;;
19867;SDS011;10096;51.112;6.776;2023-01-30T15:10:39;14.53;;;5.03;;
19867;SDS011;10096;51.112;6.776;2023-01-30T15:13:26;16.60;;;4.03;;
19867;SDS011;10096;51.112;6.776;2023-01-30T15:16:28;21.17;;;7.30;;
19867;SDS011;10096;51.112;6.776;2023-01-30T15:19:16;16.37;;;4.73;;
19867;SDS011;10096;51.112;6.776;2023-01-30T15:22:01;11.13;;;3.60;;